sensor_id;sensor_type;location;lat;lon;timestamp;temperature;humidity
12089;DHT22;6107;49.078;8.578;2023-02-03T00:01:41;7.10;99.90
12089;DHT22;6107;49.078;8.578;2023-02-03T00:04:07;7.10;99.90
12089;DHT22;6107;49.078;8.578;2023-02-03T00:06:32;7.10;99.90
12089;DHT22;6107;49.078;8.578;2023-02-03T00:08:58;7.10;99.90
12089;DHT22;6107;49.078;8.578;2023-02-03T00:11:27;7.10;99.90
12089;DHT22;6107;49.078;8.578;2023-02-03T00:13:53;7.10;99.90
12089;DHT22;6107;49.078;8.578;2023-02-03T00:16:19;7.10;99.90
12089;DHT22;6107;49.078;8.578;2023-02-03T00:18:44;7.10;99.90
12089;DHT22;6107;49.078;8.578;2023-02-03T00:21:09;7.10;99.90
12089;DHT22;6107;49.078;8.578;2023-02-03T00:23:35;7.10;99.90
12089;DHT22;6107;49.078;8.578;2023-02-03T00:26:08;7.10;99.90
12089;DHT22;6107;49.078;8.578;2023-02-03T00:28:34;7.10;99.90
12089;DHT22;6107;49.078;8.578;2023-02-03T00:30:59;7.10;99.90
12089;DHT22;6107;49.078;8.578;2023-02-03T00:33:25;7.10;99.90
12089;DHT22;6107;49.078;8.578;2023-02-03T00:35:50;7.10;99.90
12089;DHT22;6107;49.078;8.578;2023-02-03T00:38:16;7.10;99.90
12089;DHT22;6107;49.078;8.578;2023-02-03T00:40:41;7.10;99.90
12089;DHT22;6107;49.078;8.578;2023-02-03T00:43:07;7.10;99.90
12089;DHT22;6107;49.078;8.578;2023-02-03T00:45:32;7.10;99.90
12089;DHT22;6107;49.078;8.578;2023-02-03T00:47:58;7.10;99.90
12089;DHT22;6107;49.078;8.578;2023-02-03T00:50:23;7.10;99.90
12089;DHT22;6107;49.078;8.578;2023-02-03T00:52:49;7.10;99.90
12089;DHT22;6107;49.078;8.578;2023-02-03T00:55:14;7.10;99.90
12089;DHT22;6107;49.078;8.578;2023-02-03T00:57:40;7.10;99.90
12089;DHT22;6107;49.078;8.578;2023-02-03T01:00:06;7.10;99.90
12089;DHT22;6107;49.078;8.578;2023-02-03T01:02:32;7.10;99.90
12089;DHT22;6107;49.078;8.578;2023-02-03T01:04:57;7.20;99.90
12089;DHT22;6107;49.078;8.578;2023-02-03T01:07:22;7.20;99.90
12089;DHT22;6107;49.078;8.578;2023-02-03T01:09:48;7.20;99.90
12089;DHT22;6107;49.078;8.578;2023-02-03T01:12:14;7.10;99.90
12089;DHT22;6107;49.078;8.578;2023-02-03T01:14:39;7.10;99.90
12089;DHT22;6107;49.078;8.578;2023-02-03T01:17:04;7.10;99.90
12089;DHT22;6107;49.078;8.578;2023-02-03T01:19:30;7.20;99.90
12089;DHT22;6107;49.078;8.578;2023-02-03T01:21:56;7.20;99.90
12089;DHT22;6107;49.078;8.578;2023-02-03T01:24:21;7.20;99.90
12089;DHT22;6107;49.078;8.578;2023-02-03T01:26:47;7.20;99.90
12089;DHT22;6107;49.078;8.578;2023-02-03T01:29:13;7.20;99.90
12089;DHT22;6107;49.078;8.578;2023-02-03T01:31:40;7.20;99.90
12089;DHT22;6107;49.078;8.578;2023-02-03T01:34:10;7.20;99.90
12089;DHT22;6107;49.078;8.578;2023-02-03T01:36:36;7.20;99.90
12089;DHT22;6107;49.078;8.578;2023-02-03T01:39:03;7.20;99.90
12089;DHT22;6107;49.078;8.578;2023-02-03T01:41:37;7.20;99.90
12089;DHT22;6107;49.078;8.578;2023-02-03T01:44:37;7.20;99.90
12089;DHT22;6107;49.078;8.578;2023-02-03T01:47:10;7.20;99.90
12089;DHT22;6107;49.078;8.578;2023-02-03T01:49:38;7.20;99.90
12089;DHT22;6107;49.078;8.578;2023-02-03T01:52:05;7.10;99.90
12089;DHT22;6107;49.078;8.578;2023-02-03T01:54:35;7.10;99.90
12089;DHT22;6107;49.078;8.578;2023-02-03T01:57:11;7.10;99.90
12089;DHT22;6107;49.078;8.578;2023-02-03T01:59:37;7.10;99.90
12089;DHT22;6107;49.078;8.578;2023-02-03T02:02:05;7.10;99.90
12089;DHT22;6107;49.078;8.578;2023-02-03T02:04:38;7.00;99.90
12089;DHT22;6107;49.078;8.578;2023-02-03T02:07:08;7.00;99.90
12089;DHT22;6107;49.078;8.578;2023-02-03T02:09:34;7.00;99.90
12089;DHT22;6107;49.078;8.578;2023-02-03T02:12:00;7.00;99.90
12089;DHT22;6107;49.078;8.578;2023-02-03T02:14:25;6.90;99.90
12089;DHT22;6107;49.078;8.578;2023-02-03T02:28:33;6.90;99.90
12089;DHT22;6107;49.078;8.578;2023-02-03T02:34:17;6.90;99.90
12089;DHT22;6107;49.078;8.578;2023-02-03T02:39:47;6.90;99.90
12089;DHT22;6107;49.078;8.578;2023-02-03T02:45:16;7.00;99.90
12089;DHT22;6107;49.078;8.578;2023-02-03T02:47:46;7.00;99.90
12089;DHT22;6107;49.078;8.578;2023-02-03T02:50:22;7.00;99.90
12089;DHT22;6107;49.078;8.578;2023-02-03T02:52:50;7.00;99.90
12089;DHT22;6107;49.078;8.578;2023-02-03T02:55:25;7.00;99.90
12089;DHT22;6107;49.078;8.578;2023-02-03T02:57:55;7.00;99.90
12089;DHT22;6107;49.078;8.578;2023-02-03T03:00:22;7.00;99.90
12089;DHT22;6107;49.078;8.578;2023-02-03T03:02:48;7.00;99.90
12089;DHT22;6107;49.078;8.578;2023-02-03T03:05:15;7.00;99.90
12089;DHT22;6107;49.078;8.578;2023-02-03T03:07:53;7.00;99.90
12089;DHT22;6107;49.078;8.578;2023-02-03T03:10:21;7.00;99.90
12089;DHT22;6107;49.078;8.578;2023-02-03T03:12:52;6.90;99.90
12089;DHT22;6107;49.078;8.578;2023-02-03T03:15:21;6.90;99.90
12089;DHT22;6107;49.078;8.578;2023-02-03T03:18:04;6.90;99.90
12089;DHT22;6107;49.078;8.578;2023-02-03T03:20:32;6.90;99.90
12089;DHT22;6107;49.078;8.578;2023-02-03T03:23:03;6.90;99.90
12089;DHT22;6107;49.078;8.578;2023-02-03T03:25:44;6.90;99.90
12089;DHT22;6107;49.078;8.578;2023-02-03T03:28:15;6.90;99.90
12089;DHT22;6107;49.078;8.578;2023-02-03T03:30:41;6.90;99.90
12089;DHT22;6107;49.078;8.578;2023-02-03T03:33:08;7.00;99.90
12089;DHT22;6107;49.078;8.578;2023-02-03T03:38:16;7.00;99.90
12089;DHT22;6107;49.078;8.578;2023-02-03T03:40:50;7.00;99.90
12089;DHT22;6107;49.078;8.578;2023-02-03T03:43:20;7.00;99.90
12089;DHT22;6107;49.078;8.578;2023-02-03T03:45:56;7.00;99.90
12089;DHT22;6107;49.078;8.578;2023-02-03T03:48:33;7.10;99.90
12089;DHT22;6107;49.078;8.578;2023-02-03T03:51:08;7.00;99.90
12089;DHT22;6107;49.078;8.578;2023-02-03T03:53:39;7.00;99.90
12089;DHT22;6107;49.078;8.578;2023-02-03T03:56:07;7.00;99.90
12089;DHT22;6107;49.078;8.578;2023-02-03T03:58:36;7.00;99.90
12089;DHT22;6107;49.078;8.578;2023-02-03T04:01:05;7.00;99.90
12089;DHT22;6107;49.078;8.578;2023-02-03T04:03:38;7.00;99.90
12089;DHT22;6107;49.078;8.578;2023-02-03T04:06:06;7.00;99.90
12089;DHT22;6107;49.078;8.578;2023-02-03T04:08:31;7.00;99.90
12089;DHT22;6107;49.078;8.578;2023-02-03T04:10:57;7.00;99.90
12089;DHT22;6107;49.078;8.578;2023-02-03T04:13:22;7.00;99.90
12089;DHT22;6107;49.078;8.578;2023-02-03T04:15:48;7.00;99.90
12089;DHT22;6107;49.078;8.578;2023-02-03T04:18:14;7.00;99.90
12089;DHT22;6107;49.078;8.578;2023-02-03T04:20:40;7.00;99.90
12089;DHT22;6107;49.078;8.578;2023-02-03T04:23:05;6.90;99.90
12089;DHT22;6107;49.078;8.578;2023-02-03T04:25:31;6.90;99.90
12089;DHT22;6107;49.078;8.578;2023-02-03T04:27:57;7.00;99.90
12089;DHT22;6107;49.078;8.578;2023-02-03T04:30:22;6.90;99.90
12089;DHT22;6107;49.078;8.578;2023-02-03T04:32:48;6.80;99.90
12089;DHT22;6107;49.078;8.578;2023-02-03T04:35:14;6.80;99.90
12089;DHT22;6107;49.078;8.578;2023-02-03T04:37:40;6.70;99.90
12089;DHT22;6107;49.078;8.578;2023-02-03T04:40:06;6.70;99.90
12089;DHT22;6107;49.078;8.578;2023-02-03T04:42:32;6.70;99.90
12089;DHT22;6107;49.078;8.578;2023-02-03T04:44:57;6.70;99.90
12089;DHT22;6107;49.078;8.578;2023-02-03T04:47:23;6.60;99.90
12089;DHT22;6107;49.078;8.578;2023-02-03T04:49:48;6.60;99.90
12089;DHT22;6107;49.078;8.578;2023-02-03T04:52:14;6.60;99.90
12089;DHT22;6107;49.078;8.578;2023-02-03T04:54:39;6.60;99.90
12089;DHT22;6107;49.078;8.578;2023-02-03T04:57:05;6.60;99.90
12089;DHT22;6107;49.078;8.578;2023-02-03T04:59:31;6.60;99.90
12089;DHT22;6107;49.078;8.578;2023-02-03T05:01:57;6.60;99.90
12089;DHT22;6107;49.078;8.578;2023-02-03T05:04:22;6.60;99.90
12089;DHT22;6107;49.078;8.578;2023-02-03T05:06:48;6.70;99.90
12089;DHT22;6107;49.078;8.578;2023-02-03T05:09:14;6.70;99.90
12089;DHT22;6107;49.078;8.578;2023-02-03T05:11:39;6.70;99.90
12089;DHT22;6107;49.078;8.578;2023-02-03T05:14:05;6.70;99.90
12089;DHT22;6107;49.078;8.578;2023-02-03T05:16:31;6.70;99.90
12089;DHT22;6107;49.078;8.578;2023-02-03T05:18:56;6.70;99.90
12089;DHT22;6107;49.078;8.578;2023-02-03T05:21:22;6.70;99.90
12089;DHT22;6107;49.078;8.578;2023-02-03T05:23:47;6.70;99.90
12089;DHT22;6107;49.078;8.578;2023-02-03T05:26:13;6.70;99.90
12089;DHT22;6107;49.078;8.578;2023-02-03T05:28:38;6.70;99.90
12089;DHT22;6107;49.078;8.578;2023-02-03T05:31:04;6.70;99.90
12089;DHT22;6107;49.078;8.578;2023-02-03T05:33:31;6.70;99.90
12089;DHT22;6107;49.078;8.578;2023-02-03T05:35:56;6.70;99.90
12089;DHT22;6107;49.078;8.578;2023-02-03T05:38:22;6.70;99.90
12089;DHT22;6107;49.078;8.578;2023-02-03T05:40:48;6.70;99.90
12089;DHT22;6107;49.078;8.578;2023-02-03T05:43:32;6.70;99.90
12089;DHT22;6107;49.078;8.578;2023-02-03T05:46:02;6.70;99.90
12089;DHT22;6107;49.078;8.578;2023-02-03T05:48:29;6.70;99.90
12089;DHT22;6107;49.078;8.578;2023-02-03T05:50:54;6.80;99.90
12089;DHT22;6107;49.078;8.578;2023-02-03T05:53:20;6.80;99.90
12089;DHT22;6107;49.078;8.578;2023-02-03T05:55:45;6.80;99.90
12089;DHT22;6107;49.078;8.578;2023-02-03T05:58:11;6.80;99.90
12089;DHT22;6107;49.078;8.578;2023-02-03T06:00:37;6.90;99.90
12089;DHT22;6107;49.078;8.578;2023-02-03T06:03:03;6.90;99.90
12089;DHT22;6107;49.078;8.578;2023-02-03T06:05:30;6.90;99.90
12089;DHT22;6107;49.078;8.578;2023-02-03T06:07:56;6.90;99.90
12089;DHT22;6107;49.078;8.578;2023-02-03T06:10:21;6.90;99.90
12089;DHT22;6107;49.078;8.578;2023-02-03T06:12:47;6.90;99.90
12089;DHT22;6107;49.078;8.578;2023-02-03T06:15:14;6.90;99.90
12089;DHT22;6107;49.078;8.578;2023-02-03T06:17:46;6.90;99.90
12089;DHT22;6107;49.078;8.578;2023-02-03T06:20:13;6.90;99.90
12089;DHT22;6107;49.078;8.578;2023-02-03T06:22:39;6.90;99.90
12089;DHT22;6107;49.078;8.578;2023-02-03T06:25:05;6.90;99.90
12089;DHT22;6107;49.078;8.578;2023-02-03T06:27:30;6.90;99.90
12089;DHT22;6107;49.078;8.578;2023-02-03T06:29:56;6.90;99.90
12089;DHT22;6107;49.078;8.578;2023-02-03T06:32:22;6.90;99.90
12089;DHT22;6107;49.078;8.578;2023-02-03T06:34:47;6.90;99.90
12089;DHT22;6107;49.078;8.578;2023-02-03T06:37:13;6.80;99.90
12089;DHT22;6107;49.078;8.578;2023-02-03T06:39:38;6.80;99.90
12089;DHT22;6107;49.078;8.578;2023-02-03T06:42:04;6.80;99.90
12089;DHT22;6107;49.078;8.578;2023-02-03T06:44:30;6.80;99.90
12089;DHT22;6107;49.078;8.578;2023-02-03T06:46:56;6.80;99.90
12089;DHT22;6107;49.078;8.578;2023-02-03T06:49:23;6.60;99.90
12089;DHT22;6107;49.078;8.578;2023-02-03T06:51:48;6.60;99.90
12089;DHT22;6107;49.078;8.578;2023-02-03T06:54:14;6.50;99.90
12089;DHT22;6107;49.078;8.578;2023-02-03T06:56:39;6.50;99.90
12089;DHT22;6107;49.078;8.578;2023-02-03T06:59:05;6.50;99.90
12089;DHT22;6107;49.078;8.578;2023-02-03T07:01:30;6.50;99.90
12089;DHT22;6107;49.078;8.578;2023-02-03T07:03:57;6.50;99.90
12089;DHT22;6107;49.078;8.578;2023-02-03T07:06:27;6.60;99.90
12089;DHT22;6107;49.078;8.578;2023-02-03T07:08:55;6.50;99.90
12089;DHT22;6107;49.078;8.578;2023-02-03T07:11:21;6.50;99.90
12089;DHT22;6107;49.078;8.578;2023-02-03T07:13:46;6.60;99.90
12089;DHT22;6107;49.078;8.578;2023-02-03T07:16:12;6.60;99.90
12089;DHT22;6107;49.078;8.578;2023-02-03T07:18:38;6.60;99.90
12089;DHT22;6107;49.078;8.578;2023-02-03T07:21:05;6.50;99.90
12089;DHT22;6107;49.078;8.578;2023-02-03T07:23:31;6.50;99.90
12089;DHT22;6107;49.078;8.578;2023-02-03T07:26:00;6.50;99.90
12089;DHT22;6107;49.078;8.578;2023-02-03T07:28:27;7.00;99.90
12089;DHT22;6107;49.078;8.578;2023-02-03T07:30:52;6.70;99.90
12089;DHT22;6107;49.078;8.578;2023-02-03T07:33:18;6.50;99.90
12089;DHT22;6107;49.078;8.578;2023-02-03T07:35:53;6.40;99.90
12089;DHT22;6107;49.078;8.578;2023-02-03T07:38:19;6.50;99.90
12089;DHT22;6107;49.078;8.578;2023-02-03T07:40:44;6.50;99.90
12089;DHT22;6107;49.078;8.578;2023-02-03T07:43:10;6.50;99.90
12089;DHT22;6107;49.078;8.578;2023-02-03T07:45:35;6.40;99.90
12089;DHT22;6107;49.078;8.578;2023-02-03T07:48:01;6.40;99.90
12089;DHT22;6107;49.078;8.578;2023-02-03T07:50:27;6.40;99.90
12089;DHT22;6107;49.078;8.578;2023-02-03T07:52:52;6.40;99.90
12089;DHT22;6107;49.078;8.578;2023-02-03T07:55:18;6.40;99.90
12089;DHT22;6107;49.078;8.578;2023-02-03T07:57:44;6.30;99.90
12089;DHT22;6107;49.078;8.578;2023-02-03T08:00:12;6.30;99.90
12089;DHT22;6107;49.078;8.578;2023-02-03T08:02:39;6.30;99.90
12089;DHT22;6107;49.078;8.578;2023-02-03T08:05:05;6.30;99.90
12089;DHT22;6107;49.078;8.578;2023-02-03T08:07:31;6.20;99.90
12089;DHT22;6107;49.078;8.578;2023-02-03T08:09:56;6.20;99.90
12089;DHT22;6107;49.078;8.578;2023-02-03T08:12:22;6.20;99.90
12089;DHT22;6107;49.078;8.578;2023-02-03T08:14:47;6.20;99.90
12089;DHT22;6107;49.078;8.578;2023-02-03T08:17:13;6.20;99.90
12089;DHT22;6107;49.078;8.578;2023-02-03T08:19:38;6.30;99.90
12089;DHT22;6107;49.078;8.578;2023-02-03T08:22:04;6.80;99.90
12089;DHT22;6107;49.078;8.578;2023-02-03T08:24:29;6.40;99.90
12089;DHT22;6107;49.078;8.578;2023-02-03T08:26:55;6.40;99.90
12089;DHT22;6107;49.078;8.578;2023-02-03T08:29:20;6.30;99.90
12089;DHT22;6107;49.078;8.578;2023-02-03T08:31:46;6.30;99.90
12089;DHT22;6107;49.078;8.578;2023-02-03T08:34:11;6.30;99.90
12089;DHT22;6107;49.078;8.578;2023-02-03T08:36:37;6.30;99.90
12089;DHT22;6107;49.078;8.578;2023-02-03T08:39:05;6.40;99.90
12089;DHT22;6107;49.078;8.578;2023-02-03T08:41:30;6.40;99.90
12089;DHT22;6107;49.078;8.578;2023-02-03T08:43:58;6.40;99.90
12089;DHT22;6107;49.078;8.578;2023-02-03T08:46:23;6.40;99.90
12089;DHT22;6107;49.078;8.578;2023-02-03T08:48:49;6.50;99.90
12089;DHT22;6107;49.078;8.578;2023-02-03T08:51:16;6.50;99.90
12089;DHT22;6107;49.078;8.578;2023-02-03T08:53:41;6.50;99.90
12089;DHT22;6107;49.078;8.578;2023-02-03T08:56:10;6.60;99.90
12089;DHT22;6107;49.078;8.578;2023-02-03T08:58:36;6.60;99.90
12089;DHT22;6107;49.078;8.578;2023-02-03T09:01:11;6.60;99.90
12089;DHT22;6107;49.078;8.578;2023-02-03T09:03:37;6.60;99.90
12089;DHT22;6107;49.078;8.578;2023-02-03T09:06:04;6.60;99.90
12089;DHT22;6107;49.078;8.578;2023-02-03T09:08:29;6.60;99.90
12089;DHT22;6107;49.078;8.578;2023-02-03T09:10:55;6.60;99.90
12089;DHT22;6107;49.078;8.578;2023-02-03T09:13:22;6.70;99.90
12089;DHT22;6107;49.078;8.578;2023-02-03T09:15:47;6.70;99.90
12089;DHT22;6107;49.078;8.578;2023-02-03T09:18:12;6.70;99.90
12089;DHT22;6107;49.078;8.578;2023-02-03T09:20:38;6.70;99.90
12089;DHT22;6107;49.078;8.578;2023-02-03T09:23:04;6.80;99.90
12089;DHT22;6107;49.078;8.578;2023-02-03T09:25:29;6.90;99.90
12089;DHT22;6107;49.078;8.578;2023-02-03T09:27:55;6.90;99.90
12089;DHT22;6107;49.078;8.578;2023-02-03T09:30:20;6.90;99.90
12089;DHT22;6107;49.078;8.578;2023-02-03T09:32:46;6.80;99.90
12089;DHT22;6107;49.078;8.578;2023-02-03T09:35:18;6.90;99.90
12089;DHT22;6107;49.078;8.578;2023-02-03T09:37:44;6.90;99.90
12089;DHT22;6107;49.078;8.578;2023-02-03T09:40:20;6.90;99.90
12089;DHT22;6107;49.078;8.578;2023-02-03T09:45:40;6.90;99.90
12089;DHT22;6107;49.078;8.578;2023-02-03T09:48:17;6.90;99.90
12089;DHT22;6107;49.078;8.578;2023-02-03T09:50:44;6.90;99.90
12089;DHT22;6107;49.078;8.578;2023-02-03T09:53:34;6.90;99.90
12089;DHT22;6107;49.078;8.578;2023-02-03T09:56:02;6.80;99.90
12089;DHT22;6107;49.078;8.578;2023-02-03T09:58:32;6.80;99.90
12089;DHT22;6107;49.078;8.578;2023-02-03T10:00:59;6.70;99.90
12089;DHT22;6107;49.078;8.578;2023-02-03T10:03:36;6.70;99.90
12089;DHT22;6107;49.078;8.578;2023-02-03T10:06:08;6.80;99.90
12089;DHT22;6107;49.078;8.578;2023-02-03T10:14:05;6.80;99.90
12089;DHT22;6107;49.078;8.578;2023-02-03T10:19:14;6.90;99.90
12089;DHT22;6107;49.078;8.578;2023-02-03T10:21:45;6.90;99.90
12089;DHT22;6107;49.078;8.578;2023-02-03T10:24:18;6.90;99.90
12089;DHT22;6107;49.078;8.578;2023-02-03T10:26:44;7.00;99.90
12089;DHT22;6107;49.078;8.578;2023-02-03T10:29:20;7.00;99.90
12089;DHT22;6107;49.078;8.578;2023-02-03T10:31:48;6.90;99.90
12089;DHT22;6107;49.078;8.578;2023-02-03T10:34:16;6.90;99.90
12089;DHT22;6107;49.078;8.578;2023-02-03T10:39:31;6.80;99.90
12089;DHT22;6107;49.078;8.578;2023-02-03T10:41:58;6.90;99.90
12089;DHT22;6107;49.078;8.578;2023-02-03T10:44:39;6.90;99.90
12089;DHT22;6107;49.078;8.578;2023-02-03T10:47:32;6.90;99.90
12089;DHT22;6107;49.078;8.578;2023-02-03T10:50:03;6.90;99.90
12089;DHT22;6107;49.078;8.578;2023-02-03T10:52:32;6.90;99.90
12089;DHT22;6107;49.078;8.578;2023-02-03T10:55:01;7.00;99.90
12089;DHT22;6107;49.078;8.578;2023-02-03T10:57:29;7.00;99.90
12089;DHT22;6107;49.078;8.578;2023-02-03T11:00:06;7.00;99.90
12089;DHT22;6107;49.078;8.578;2023-02-03T11:02:33;7.00;99.90
12089;DHT22;6107;49.078;8.578;2023-02-03T11:07:41;7.20;99.90
12089;DHT22;6107;49.078;8.578;2023-02-03T11:10:30;7.20;99.90
12089;DHT22;6107;49.078;8.578;2023-02-03T11:13:18;7.30;99.90
12089;DHT22;6107;49.078;8.578;2023-02-03T11:16:04;7.40;99.90
12089;DHT22;6107;49.078;8.578;2023-02-03T11:26:46;7.60;99.90
12089;DHT22;6107;49.078;8.578;2023-02-03T11:29:26;7.60;99.90
12089;DHT22;6107;49.078;8.578;2023-02-03T11:31:54;7.60;99.90
12089;DHT22;6107;49.078;8.578;2023-02-03T11:34:30;7.70;99.90
12089;DHT22;6107;49.078;8.578;2023-02-03T11:36:56;7.80;99.90
12089;DHT22;6107;49.078;8.578;2023-02-03T11:39:29;7.90;99.90
12089;DHT22;6107;49.078;8.578;2023-02-03T11:42:02;8.00;99.90
12089;DHT22;6107;49.078;8.578;2023-02-03T11:44:44;8.00;99.90
12089;DHT22;6107;49.078;8.578;2023-02-03T11:47:12;7.90;99.90
12089;DHT22;6107;49.078;8.578;2023-02-03T11:58:35;7.90;99.90
12089;DHT22;6107;49.078;8.578;2023-02-03T12:01:21;8.00;99.90
12089;DHT22;6107;49.078;8.578;2023-02-03T12:12:47;8.10;99.90
12089;DHT22;6107;49.078;8.578;2023-02-03T12:19:40;8.10;99.90
12089;DHT22;6107;49.078;8.578;2023-02-03T12:21:43;8.20;99.90
12089;DHT22;6107;49.078;8.578;2023-02-03T12:29:50;8.40;99.90
12089;DHT22;6107;49.078;8.578;2023-02-03T12:32:56;8.30;99.90
12089;DHT22;6107;49.078;8.578;2023-02-03T12:35:31;8.40;99.90
12089;DHT22;6107;49.078;8.578;2023-02-03T12:38:06;8.40;99.90
12089;DHT22;6107;49.078;8.578;2023-02-03T12:43:33;8.40;99.90
12089;DHT22;6107;49.078;8.578;2023-02-03T12:46:28;8.40;99.90
12089;DHT22;6107;49.078;8.578;2023-02-03T12:51:54;8.40;99.90
12089;DHT22;6107;49.078;8.578;2023-02-03T12:59:43;8.40;99.90
12089;DHT22;6107;49.078;8.578;2023-02-03T13:02:17;8.40;99.90
12089;DHT22;6107;49.078;8.578;2023-02-03T13:04:53;8.40;99.90
12089;DHT22;6107;49.078;8.578;2023-02-03T13:07:38;8.40;99.90
12089;DHT22;6107;49.078;8.578;2023-02-03T13:10:20;8.30;99.90
12089;DHT22;6107;49.078;8.578;2023-02-03T13:12:50;8.40;99.90
12089;DHT22;6107;49.078;8.578;2023-02-03T13:20:23;8.40;99.90
12089;DHT22;6107;49.078;8.578;2023-02-03T13:22:49;8.40;99.90
12089;DHT22;6107;49.078;8.578;2023-02-03T13:25:22;8.40;99.90
12089;DHT22;6107;49.078;8.578;2023-02-03T13:28:20;8.40;99.90
12089;DHT22;6107;49.078;8.578;2023-02-03T13:39:22;8.50;99.90
12089;DHT22;6107;49.078;8.578;2023-02-03T13:41:54;8.50;99.90
12089;DHT22;6107;49.078;8.578;2023-02-03T13:44:26;8.50;99.90
12089;DHT22;6107;49.078;8.578;2023-02-03T13:46:53;8.50;99.90
12089;DHT22;6107;49.078;8.578;2023-02-03T13:49:29;8.50;99.90
12089;DHT22;6107;49.078;8.578;2023-02-03T13:51:56;8.50;99.90
12089;DHT22;6107;49.078;8.578;2023-02-03T13:57:05;8.50;99.90
12089;DHT22;6107;49.078;8.578;2023-02-03T14:07:34;8.50;99.90
12089;DHT22;6107;49.078;8.578;2023-02-03T14:12:38;8.40;99.90
12089;DHT22;6107;49.078;8.578;2023-02-03T14:20:50;8.40;99.90
12089;DHT22;6107;49.078;8.578;2023-02-03T14:23:26;8.40;99.90
12089;DHT22;6107;49.078;8.578;2023-02-03T14:25:57;8.40;99.90
12089;DHT22;6107;49.078;8.578;2023-02-03T14:28:36;8.40;99.90
12089;DHT22;6107;49.078;8.578;2023-02-03T14:31:20;8.40;99.90
12089;DHT22;6107;49.078;8.578;2023-02-03T14:53:30;8.40;99.90
12089;DHT22;6107;49.078;8.578;2023-02-03T14:59:25;8.40;99.90
12089;DHT22;6107;49.078;8.578;2023-02-03T15:04:22;8.40;99.90
12089;DHT22;6107;49.078;8.578;2023-02-03T15:06:50;8.40;99.90
12089;DHT22;6107;49.078;8.578;2023-02-03T15:12:26;8.30;99.90
12089;DHT22;6107;49.078;8.578;2023-02-03T15:15:17;8.30;99.90
12089;DHT22;6107;49.078;8.578;2023-02-03T15:17:44;8.30;99.90
12089;DHT22;6107;49.078;8.578;2023-02-03T15:20:37;8.30;99.90
12089;DHT22;6107;49.078;8.578;2023-02-03T15:23:21;8.20;99.90
12089;DHT22;6107;49.078;8.578;2023-02-03T15:25:59;8.20;99.90
12089;DHT22;6107;49.078;8.578;2023-02-03T15:28:26;8.20;99.90
12089;DHT22;6107;49.078;8.578;2023-02-03T15:30:57;8.20;99.90
12089;DHT22;6107;49.078;8.578;2023-02-03T15:33:25;8.10;99.90
12089;DHT22;6107;49.078;8.578;2023-02-03T15:35:54;8.10;99.90
12089;DHT22;6107;49.078;8.578;2023-02-03T15:38:29;8.10;99.90
12089;DHT22;6107;49.078;8.578;2023-02-03T15:40:58;8.10;99.90
12089;DHT22;6107;49.078;8.578;2023-02-03T15:43:39;8.10;99.90
12089;DHT22;6107;49.078;8.578;2023-02-03T15:46:42;8.00;99.90
12089;DHT22;6107;49.078;8.578;2023-02-03T15:49:18;8.00;99.90
12089;DHT22;6107;49.078;8.578;2023-02-03T15:51:50;8.00;99.90
12089;DHT22;6107;49.078;8.578;2023-02-03T15:54:29;7.90;99.90
12089;DHT22;6107;49.078;8.578;2023-02-03T15:57:02;7.90;99.90
12089;DHT22;6107;49.078;8.578;2023-02-03T15:59:40;7.90;99.90
12089;DHT22;6107;49.078;8.578;2023-02-03T16:02:20;7.90;99.90
12089;DHT22;6107;49.078;8.578;2023-02-03T16:04:47;7.80;99.90
12089;DHT22;6107;49.078;8.578;2023-02-03T16:07:18;7.80;99.90
12089;DHT22;6107;49.078;8.578;2023-02-03T16:09:45;7.80;99.90
12089;DHT22;6107;49.078;8.578;2023-02-03T16:12:30;7.80;99.90
12089;DHT22;6107;49.078;8.578;2023-02-03T16:14:57;7.70;99.90
12089;DHT22;6107;49.078;8.578;2023-02-03T16:20:05;7.70;99.90
12089;DHT22;6107;49.078;8.578;2023-02-03T16:22:43;7.70;99.90
12089;DHT22;6107;49.078;8.578;2023-02-03T16:25:29;7.70;99.90
12089;DHT22;6107;49.078;8.578;2023-02-03T16:31:12;7.70;99.90
12089;DHT22;6107;49.078;8.578;2023-02-03T16:33:57;7.80;99.90
12089;DHT22;6107;49.078;8.578;2023-02-03T16:36:43;7.70;99.90
12089;DHT22;6107;49.078;8.578;2023-02-03T16:39:27;7.70;99.90
12089;DHT22;6107;49.078;8.578;2023-02-03T16:42:16;7.80;99.90
12089;DHT22;6107;49.078;8.578;2023-02-03T16:45:01;7.70;99.90
12089;DHT22;6107;49.078;8.578;2023-02-03T16:47:46;7.80;99.90
12089;DHT22;6107;49.078;8.578;2023-02-03T16:50:30;7.80;99.90
12089;DHT22;6107;49.078;8.578;2023-02-03T16:53:16;7.80;99.90
12089;DHT22;6107;49.078;8.578;2023-02-03T16:55:44;7.80;99.90
12089;DHT22;6107;49.078;8.578;2023-02-03T16:58:09;7.80;99.90
12089;DHT22;6107;49.078;8.578;2023-02-03T17:00:37;7.80;99.90
12089;DHT22;6107;49.078;8.578;2023-02-03T17:03:08;7.90;99.90
12089;DHT22;6107;49.078;8.578;2023-02-03T17:05:39;7.90;99.90
12089;DHT22;6107;49.078;8.578;2023-02-03T17:08:05;7.90;99.90
12089;DHT22;6107;49.078;8.578;2023-02-03T17:10:35;7.90;99.90
12089;DHT22;6107;49.078;8.578;2023-02-03T17:13:02;7.90;99.90
12089;DHT22;6107;49.078;8.578;2023-02-03T17:15:27;7.90;99.90
12089;DHT22;6107;49.078;8.578;2023-02-03T17:17:53;7.90;99.90
12089;DHT22;6107;49.078;8.578;2023-02-03T17:20:19;7.90;99.90
12089;DHT22;6107;49.078;8.578;2023-02-03T17:22:45;8.00;99.90
12089;DHT22;6107;49.078;8.578;2023-02-03T17:25:10;8.00;99.90
12089;DHT22;6107;49.078;8.578;2023-02-03T17:27:36;8.00;99.90
12089;DHT22;6107;49.078;8.578;2023-02-03T17:30:02;7.90;99.90
12089;DHT22;6107;49.078;8.578;2023-02-03T17:32:28;7.90;99.90
12089;DHT22;6107;49.078;8.578;2023-02-03T17:34:53;7.90;99.90
12089;DHT22;6107;49.078;8.578;2023-02-03T17:37:19;7.90;99.90
12089;DHT22;6107;49.078;8.578;2023-02-03T17:39:44;8.00;99.90
12089;DHT22;6107;49.078;8.578;2023-02-03T17:42:11;8.00;99.90
12089;DHT22;6107;49.078;8.578;2023-02-03T17:44:36;8.00;99.90
12089;DHT22;6107;49.078;8.578;2023-02-03T17:47:02;8.00;99.90
12089;DHT22;6107;49.078;8.578;2023-02-03T17:49:28;8.00;99.90
12089;DHT22;6107;49.078;8.578;2023-02-03T17:51:53;8.00;99.90
12089;DHT22;6107;49.078;8.578;2023-02-03T17:54:19;8.00;99.90
12089;DHT22;6107;49.078;8.578;2023-02-03T17:56:44;8.00;99.90
12089;DHT22;6107;49.078;8.578;2023-02-03T17:59:14;8.10;99.90
12089;DHT22;6107;49.078;8.578;2023-02-03T18:01:40;8.00;99.90
12089;DHT22;6107;49.078;8.578;2023-02-03T18:04:06;8.00;99.90
12089;DHT22;6107;49.078;8.578;2023-02-03T18:06:35;8.00;99.90
12089;DHT22;6107;49.078;8.578;2023-02-03T18:09:02;8.00;99.90
12089;DHT22;6107;49.078;8.578;2023-02-03T18:11:29;8.00;99.90
12089;DHT22;6107;49.078;8.578;2023-02-03T18:13:56;8.00;99.90
12089;DHT22;6107;49.078;8.578;2023-02-03T18:16:25;8.00;99.90
12089;DHT22;6107;49.078;8.578;2023-02-03T18:18:52;7.90;99.90
12089;DHT22;6107;49.078;8.578;2023-02-03T18:21:19;7.90;99.90
12089;DHT22;6107;49.078;8.578;2023-02-03T18:23:45;7.90;99.90
12089;DHT22;6107;49.078;8.578;2023-02-03T18:26:12;7.90;99.90
12089;DHT22;6107;49.078;8.578;2023-02-03T18:28:38;7.90;99.90
12089;DHT22;6107;49.078;8.578;2023-02-03T18:31:09;7.90;99.90
12089;DHT22;6107;49.078;8.578;2023-02-03T18:33:36;7.90;99.90
12089;DHT22;6107;49.078;8.578;2023-02-03T18:36:02;7.90;99.90
12089;DHT22;6107;49.078;8.578;2023-02-03T18:38:29;7.90;99.90
12089;DHT22;6107;49.078;8.578;2023-02-03T18:41:02;7.90;99.90
12089;DHT22;6107;49.078;8.578;2023-02-03T18:43:28;7.90;99.90
12089;DHT22;6107;49.078;8.578;2023-02-03T18:45:53;7.90;99.90
12089;DHT22;6107;49.078;8.578;2023-02-03T18:48:19;7.90;99.90
12089;DHT22;6107;49.078;8.578;2023-02-03T18:50:44;7.90;99.90